Time;durP1;ratioP1;P1;durP2;ratioP2;P2;SDS_P1;SDS_P2;PMS_P1;PMS_P2;Temp;Humidity;BMP_temperature;BMP_pressure;BME280_temperature;BME280_humidity;BME280_pressure;Samples;Min_cycle;Max_cycle;Signal;HPM_P1;HPM_P2
2021/08/10 00:01:02;;;;;;;2.88;2.20;;;;;;;17.06;78.18;97078.40;127932;1093;28799;-84
2021/08/10 00:03:33;;;;;;;2.85;1.83;;;;;;;16.99;78.41;97073.47;127976;1092;25058;-83
2021/08/10 00:06:05;;;;;;;2.83;1.90;;;;;;;17.00;78.71;97076.94;127960;1092;26576;-83
2021/08/10 00:08:36;;;;;;;2.58;2.23;;;;;;;17.04;78.89;97076.03;127972;1093;26639;-83
2021/08/10 00:11:08;;;;;;;2.90;2.10;;;;;;;17.13;78.80;97076.05;127927;1093;29578;-83
2021/08/10 00:13:40;;;;;;;2.95;1.85;;;;;;;17.20;78.67;97087.92;128013;1093;26638;-83
2021/08/10 00:16:11;;;;;;;3.58;2.28;;;;;;;17.33;78.61;97082.77;127985;1093;25237;-83
2021/08/10 00:18:43;;;;;;;3.43;2.08;;;;;;;17.41;78.46;97065.91;127961;1093;25833;-83
2021/08/10 00:21:15;;;;;;;3.33;1.93;;;;;;;17.42;78.54;97062.13;128024;1091;25540;-84
2021/08/10 00:23:46;;;;;;;6.43;2.33;;;;;;;17.50;78.58;97048.77;128060;1093;26546;-84
2021/08/10 00:26:17;;;;;;;3.70;2.23;;;;;;;17.57;78.47;97040.25;127993;1093;32494;-83
2021/08/10 00:28:48;;;;;;;2.45;2.13;;;;;;;17.65;78.52;97034.13;128011;1092;25584;-83
2021/08/10 00:31:20;;;;;;;3.88;2.18;;;;;;;17.68;78.07;97041.56;127921;1093;53963;-82
2021/08/10 00:33:51;;;;;;;3.03;2.13;;;;;;;17.72;78.14;97060.50;127998;1090;26613;-83
2021/08/10 00:36:22;;;;;;;4.60;2.70;;;;;;;17.76;78.20;97051.53;127958;1093;27430;-83
2021/08/10 00:38:53;;;;;;;2.98;2.40;;;;;;;17.82;78.15;97044.11;127986;1093;29161;-83
2021/08/10 00:41:25;;;;;;;3.65;2.00;;;;;;;17.77;78.01;97047.74;127954;1093;25771;-82
2021/08/10 00:43:56;;;;;;;2.88;2.10;;;;;;;17.69;77.93;97045.04;127962;1093;26437;-83
2021/08/10 00:46:28;;;;;;;3.80;1.90;;;;;;;17.75;78.02;97049.17;127966;1093;25493;-84
2021/08/10 00:48:59;;;;;;;5.78;2.03;;;;;;;17.72;77.92;97044.41;127989;1093;29025;-83
2021/08/10 00:51:31;;;;;;;3.00;1.78;;;;;;;17.61;78.00;97051.95;127945;1093;33220;-85
2021/08/10 00:54:12;;;;;;;3.63;1.68;;;;;;;17.49;78.03;97051.76;127983;1093;23779;-83
2021/08/10 00:56:43;;;;;;;3.10;2.45;;;;;;;17.49;78.59;97052.55;127947;1093;27433;-83
2021/08/10 00:59:14;;;;;;;5.93;2.68;;;;;;;17.52;78.25;97051.13;128030;1093;24968;-83
2021/08/10 01:01:46;;;;;;;3.00;2.70;;;;;;;17.54;78.69;97054.28;128008;1092;34081;-83
2021/08/10 01:04:17;;;;;;;4.55;2.33;;;;;;;17.49;78.63;97046.39;127988;1093;27813;-84
2021/08/10 01:07:01;;;;;;;2.95;2.30;;;;;;;17.45;78.86;97042.73;128010;1093;26084;-84
2021/08/10 01:09:40;;;;;;;3.45;2.20;;;;;;;17.44;78.87;97047.31;127961;1093;29547;-83
2021/08/10 01:12:17;;;;;;;3.60;2.03;;;;;;;17.48;78.74;97044.82;127932;1093;29818;-83
2021/08/10 01:14:59;;;;;;;2.78;2.18;;;;;;;17.52;78.98;97040.41;128015;1093;26573;-83
2021/08/10 01:17:40;;;;;;;5.50;2.30;;;;;;;17.56;78.79;97030.63;127960;1093;27379;-84
2021/08/10 01:20:25;;;;;;;;;;;;;;;17.60;79.14;97038.86;127968;1092;24897;-83
2021/08/10 01:22:59;;;;;;;4.43;2.68;;;;;;;17.62;79.04;97040.13;127975;1093;66159;-83
2021/08/10 01:25:42;;;;;;;4.15;2.43;;;;;;;17.65;78.82;97044.85;127992;1093;33444;-83
2021/08/10 01:28:38;;;;;;;5.08;2.95;;;;;;;17.69;78.66;97037.78;127992;1093;27449;-83
2021/08/10 01:31:28;;;;;;;4.53;2.88;;;;;;;17.67;78.97;97037.28;128045;1093;26091;-83
2021/08/10 01:34:07;;;;;;;6.33;2.98;;;;;;;17.64;79.39;97034.44;127959;1093;37982;-83
2021/08/10 01:36:40;;;;;;;4.95;3.10;;;;;;;17.63;79.42;97039.02;127978;1093;26258;-84
2021/08/10 01:39:13;;;;;;;3.43;2.98;;;;;;;17.62;79.11;97034.76;127993;1093;25563;-82
2021/08/10 01:41:47;;;;;;;4.53;2.90;;;;;;;17.57;79.33;97040.25;128027;1092;24926;-82
2021/08/10 01:44:19;;;;;;;3.80;3.08;;;;;;;17.49;79.25;97036.46;128048;1093;25708;-84
2021/08/10 01:46:50;;;;;;;4.63;2.85;;;;;;;17.49;79.54;97027.63;127958;1093;26572;-82
2021/08/10 01:49:23;;;;;;;5.55;3.20;;;;;;;17.50;79.36;97026.53;127995;1093;26754;-82
2021/08/10 01:51:57;;;;;;;4.18;2.68;;;;;;;17.52;79.34;97027.00;127949;1093;25667;-83
2021/08/10 01:54:30;;;;;;;4.10;2.60;;;;;;;17.59;79.38;97023.84;127888;1090;29517;-83
2021/08/10 01:57:02;;;;;;;2.58;2.33;;;;;;;17.66;79.37;97030.34;127958;1093;32099;-83
2021/08/10 01:59:34;;;;;;;6.00;2.70;;;;;;;17.67;79.15;97029.23;127953;1093;28467;-83
2021/08/10 02:02:06;;;;;;;3.70;2.60;;;;;;;17.57;79.08;97034.09;127978;1093;28156;-83
2021/08/10 02:04:38;;;;;;;3.37;2.30;;;;;;;17.43;79.35;97032.33;127981;1093;29719;-82
2021/08/10 02:07:10;;;;;;;3.20;2.30;;;;;;;17.31;79.49;97024.09;127966;1093;27291;-82
2021/08/10 02:09:42;;;;;;;5.28;2.33;;;;;;;17.28;79.45;97032.77;127946;1093;35089;-83
2021/08/10 02:12:14;;;;;;;4.95;2.15;;;;;;;17.36;79.74;97036.58;127946;1093;41557;-83
2021/08/10 02:14:46;;;;;;;2.45;2.00;;;;;;;17.40;79.63;97038.32;128060;1093;24548;-83
2021/08/10 02:17:18;;;;;;;4.93;2.40;;;;;;;17.36;79.38;97036.58;128037;1093;29026;-83
2021/08/10 02:19:50;;;;;;;3.10;2.20;;;;;;;17.35;79.59;97038.47;127889;1093;79133;-83
2021/08/10 02:22:23;;;;;;;4.93;2.43;;;;;;;17.33;79.67;97035.32;127983;1093;25257;-83
2021/08/10 02:25:00;;;;;;;3.03;2.60;;;;;;;17.36;79.91;97039.27;127890;1093;54978;-82
2021/08/10 02:27:37;;;;;;;3.23;2.43;;;;;;;17.41;79.95;97031.06;127972;1090;25869;-83
2021/08/10 02:30:12;;;;;;;3.88;2.73;;;;;;;17.48;79.88;97042.93;127988;1093;25589;-83
2021/08/10 02:32:46;;;;;;;3.18;2.48;;;;;;;17.51;79.70;97046.88;127988;1093;25984;-83
2021/08/10 02:35:20;;;;;;;4.60;3.05;;;;;;;17.47;79.64;97043.24;128026;1093;28476;-84
2021/08/10 02:37:52;;;;;;;4.65;3.18;;;;;;;17.40;79.88;97035.64;128005;1093;26251;-83
2021/08/10 02:40:25;;;;;;;4.45;3.08;;;;;;;17.35;79.80;97037.69;127993;1093;29824;-83
2021/08/10 02:43:00;;;;;;;4.18;3.03;;;;;;;17.33;79.97;97034.53;127974;1093;27678;-84
2021/08/10 02:45:35;;;;;;;3.25;2.95;;;;;;;17.34;80.30;97033.43;127934;1093;26876;-84
2021/08/10 02:48:07;;;;;;;3.98;2.98;;;;;;;17.40;80.47;97035.64;127973;1092;27343;-83
2021/08/10 02:50:39;;;;;;;6.03;3.10;;;;;;;17.46;80.50;97036.30;127978;1093;24653;-82
2021/08/10 02:53:10;;;;;;;4.53;3.03;;;;;;;17.52;80.66;97035.05;127908;1093;35705;-82
2021/08/10 02:55:48;;;;;;;4.13;3.13;;;;;;;17.58;80.96;97044.50;127947;1093;25186;-83
2021/08/10 02:58:23;;;;;;;3.70;2.90;;;;;;;17.60;80.43;97034.28;128022;1093;26960;-83
2021/08/10 03:01:08;;;;;;;5.58;3.28;;;;;;;17.62;80.23;97033.97;128001;1093;23594;-84
2021/08/10 03:03:39;;;;;;;6.18;3.20;;;;;;;17.67;80.42;97037.28;127921;1093;45084;-84
2021/08/10 03:06:12;;;;;;;6.85;3.18;;;;;;;17.72;80.25;97033.68;127943;1093;31248;-82
2021/08/10 03:08:48;;;;;;;5.28;3.43;;;;;;;17.69;80.08;97037.00;127981;1093;25811;-84
2021/08/10 03:11:21;;;;;;;4.43;3.00;;;;;;;17.66;80.17;97035.70;128001;1093;27777;-83
2021/08/10 03:13:54;;;;;;;4.10;3.15;;;;;;;17.64;80.21;97032.55;127987;1093;28269;-82
2021/08/10 03:16:27;;;;;;;4.25;2.98;;;;;;;17.68;80.27;97038.06;127908;1093;82583;-82
2021/08/10 03:19:04;;;;;;;3.85;2.95;;;;;;;17.69;80.48;97042.36;127986;1093;26215;-84
2021/08/10 03:21:37;;;;;;;4.60;3.05;;;;;;;17.70;80.94;97039.36;127977;1092;23681;-83
2021/08/10 03:24:10;;;;;;;4.43;3.28;;;;;;;17.69;80.85;97028.95;127968;1093;27043;-84
2021/08/10 03:26:44;;;;;;;3.88;2.95;;;;;;;17.65;80.85;97028.77;127944;1093;26012;-82
2021/08/10 03:29:17;;;;;;;4.53;3.23;;;;;;;17.62;80.94;97032.08;128087;1093;25616;-83
2021/08/10 03:31:49;;;;;;;4.77;3.03;;;;;;;17.60;81.13;97038.86;128026;1093;29743;-83
2021/08/10 03:34:21;;;;;;;4.20;2.88;;;;;;;17.57;81.17;97032.20;127946;1092;26541;-84
2021/08/10 03:36:54;;;;;;;4.80;3.00;;;;;;;17.57;81.26;97021.48;127934;1093;28195;-83
2021/08/10 03:39:26;;;;;;;5.00;3.50;;;;;;;17.55;81.30;97015.65;127933;1092;31097;-83
2021/08/10 03:42:00;;;;;;;5.48;3.50;;;;;;;17.52;81.44;97018.96;127970;1093;27520;-83
2021/08/10 03:44:32;;;;;;;5.88;3.43;;;;;;;17.55;81.30;97023.69;127965;1093;32824;-83
2021/08/10 03:47:04;;;;;;;5.05;2.95;;;;;;;17.58;81.55;97015.02;127910;1093;30048;-82
2021/08/10 03:49:35;;;;;;;4.10;2.90;;;;;;;17.61;81.23;97022.45;127900;1093;85930;-83
2021/08/10 03:52:09;;;;;;;4.68;3.03;;;;;;;17.63;81.37;97009.52;127920;1093;52633;-83
2021/08/10 03:54:41;;;;;;;3.55;3.03;;;;;;;17.62;81.70;97007.16;127955;1093;25526;-83
2021/08/10 03:57:18;;;;;;;5.38;3.40;;;;;;;17.61;81.64;97009.05;127959;1093;28346;-83
2021/08/10 03:59:52;;;;;;;4.58;3.28;;;;;;;17.64;81.52;97008.42;127997;1093;36030;-83
2021/08/10 04:02:24;;;;;;;6.00;3.00;;;;;;;17.68;81.47;97006.70;128020;1093;27406;-82
2021/08/10 04:04:57;;;;;;;3.55;2.80;;;;;;;17.72;81.33;97006.86;127900;1093;27637;-83
2021/08/10 04:07:30;;;;;;;3.73;2.80;;;;;;;17.74;81.19;97012.73;127970;1093;27587;-83
2021/08/10 04:10:03;;;;;;;3.45;2.60;;;;;;;17.78;81.06;97005.63;127999;1093;27619;-82
2021/08/10 04:12:34;;;;;;;4.68;2.33;;;;;;;17.84;81.07;97003.56;127941;1093;27373;-82
2021/08/10 04:15:07;;;;;;;4.63;3.20;;;;;;;17.91;81.06;97003.90;127953;1093;25474;-83
2021/08/10 04:17:41;;;;;;;4.93;3.03;;;;;;;17.99;80.96;97000.41;127968;1093;28139;-83
2021/08/10 04:20:13;;;;;;;7.43;3.80;;;;;;;18.02;80.60;97000.59;128017;1092;23127;-82
2021/08/10 04:22:44;;;;;;;3.38;3.05;;;;;;;18.05;80.50;96996.48;127968;1093;30094;-83
2021/08/10 04:25:15;;;;;;;4.48;3.25;;;;;;;18.08;80.54;97001.20;127958;1093;35804;-83
2021/08/10 04:27:47;;;;;;;4.40;3.38;;;;;;;18.07;80.52;97002.31;127977;1093;30183;-83
2021/08/10 04:30:18;;;;;;;4.65;3.08;;;;;;;18.00;80.54;97008.14;127970;1092;29762;-83
2021/08/10 04:32:49;;;;;;;3.95;2.83;;;;;;;17.94;80.72;97003.26;128058;1092;28346;-83
2021/08/10 04:35:21;;;;;;;4.95;3.10;;;;;;;17.88;80.87;97004.53;127929;1093;26270;-83
2021/08/10 04:37:52;;;;;;;3.58;2.60;;;;;;;17.79;81.07;97013.35;127992;1092;26173;-83
2021/08/10 04:40:27;;;;;;;3.37;2.97;;;;;;;17.77;81.10;97012.88;127963;1092;26763;-83
2021/08/10 04:43:00;;;;;;;3.85;2.90;;;;;;;17.77;81.36;97007.52;127965;1093;26647;-84
2021/08/10 04:45:32;;;;;;;4.45;2.80;;;;;;;17.79;81.16;97007.98;127971;1093;27674;-82
2021/08/10 04:48:03;;;;;;;3.83;2.73;;;;;;;17.87;81.19;97019.02;127940;1093;26667;-83
2021/08/10 04:50:35;;;;;;;3.63;2.90;;;;;;;17.91;81.25;97020.78;127953;1093;27918;-83
2021/08/10 04:53:06;;;;;;;5.20;3.05;;;;;;;17.92;81.11;97026.94;127910;1093;38888;-83
2021/08/10 04:55:38;;;;;;;3.90;2.60;;;;;;;17.98;81.07;97028.34;127914;1093;26862;-83
2021/08/10 04:58:10;;;;;;;5.45;2.60;;;;;;;18.03;80.96;97025.52;127930;1093;29904;-84
2021/08/10 05:00:41;;;;;;;5.38;2.83;;;;;;;18.08;80.90;97026.14;127956;1092;25923;-82
2021/08/10 05:03:12;;;;;;;5.90;2.98;;;;;;;18.08;80.89;97031.51;127865;1093;76933;-82
2021/08/10 05:05:44;;;;;;;5.47;3.27;;;;;;;18.08;81.29;97026.14;127939;1093;26907;-83
2021/08/10 05:08:16;;;;;;;4.30;3.00;;;;;;;18.03;81.81;97042.41;128033;1093;25710;-82
2021/08/10 05:10:48;;;;;;;4.08;2.60;;;;;;;18.02;81.92;97042.73;128007;1093;28552;-82
2021/08/10 05:13:19;;;;;;;2.63;2.33;;;;;;;18.09;82.19;97040.34;128046;1093;24964;-83
2021/08/10 05:15:50;;;;;;;2.50;2.30;;;;;;;18.10;81.55;97031.98;127961;1092;28750;-83
2021/08/10 05:18:22;;;;;;;4.68;2.85;;;;;;;18.09;81.49;97033.08;127972;1093;31805;-82
2021/08/10 05:20:54;;;;;;;4.45;2.60;;;;;;;18.16;81.63;97040.67;127933;1093;27384;-82
2021/08/10 05:23:26;;;;;;;3.45;2.60;;;;;;;18.30;81.62;97049.35;127951;1093;28977;-84
2021/08/10 05:25:57;;;;;;;4.13;2.85;;;;;;;18.38;81.28;97048.54;127854;1093;46380;-83
2021/08/10 05:28:29;;;;;;;5.45;2.50;;;;;;;18.45;81.02;97045.39;127971;1093;25820;-84
2021/08/10 05:31:00;;;;;;;2.90;2.55;;;;;;;18.50;80.75;97044.42;127931;1093;34445;-84
2021/08/10 05:33:32;;;;;;;4.58;3.00;;;;;;;18.66;80.86;97045.53;127940;1093;34757;-83
2021/08/10 05:36:03;;;;;;;4.45;2.93;;;;;;;18.89;80.60;97033.47;127940;1093;28134;-83
2021/08/10 05:38:35;;;;;;;4.98;2.70;;;;;;;19.14;80.11;97045.23;127973;1093;27721;-83
2021/08/10 05:41:06;;;;;;;4.13;3.03;;;;;;;19.81;80.39;97043.63;127944;1093;27128;-83
2021/08/10 05:43:38;;;;;;;3.30;2.38;;;;;;;21.06;80.09;97040.77;127984;1093;29643;-83
2021/08/10 05:46:10;;;;;;;3.28;2.30;;;;;;;21.83;77.72;97038.98;127952;1093;26256;-83
2021/08/10 05:48:42;;;;;;;4.00;2.10;;;;;;;23.48;77.02;97036.03;127985;1093;30142;-83
2021/08/10 05:51:13;;;;;;;3.75;2.25;;;;;;;25.43;72.84;97033.70;127959;1092;26370;-84
2021/08/10 05:53:44;;;;;;;2.93;2.28;;;;;;;27.14;71.16;97033.91;127975;1093;26966;-84
2021/08/10 05:56:16;;;;;;;6.07;2.60;;;;;;;29.52;68.03;97030.64;127956;1093;41123;-84
2021/08/10 05:58:47;;;;;;;4.00;2.30;;;;;;;31.69;63.86;97032.30;128058;1093;26871;-84
2021/08/10 06:01:19;;;;;;;3.08;2.23;;;;;;;33.28;59.55;97033.45;127995;1093;31268;-84
2021/08/10 06:03:50;;;;;;;3.03;2.23;;;;;;;34.73;56.44;97027.20;127948;1093;26981;-83
2021/08/10 06:06:21;;;;;;;2.40;1.80;;;;;;;36.11;51.82;97046.32;127885;1093;38300;-83
2021/08/10 06:08:53;;;;;;;2.03;1.83;;;;;;;37.07;50.31;97052.60;127949;1093;26646;-85
2021/08/10 06:11:25;;;;;;;3.08;2.10;;;;;;;38.15;47.67;97049.81;127942;1093;40976;-84
2021/08/10 06:13:56;;;;;;;2.45;1.70;;;;;;;38.69;44.91;97060.52;127977;1093;29808;-84
2021/08/10 06:16:27;;;;;;;2.05;1.65;;;;;;;38.33;41.76;97057.52;127905;1093;30958;-85
2021/08/10 06:19:01;;;;;;;2.20;1.70;;;;;;;38.41;38.51;97053.25;127978;1092;31317;-84
2021/08/10 06:21:33;;;;;;;3.48;1.98;;;;;;;38.01;39.43;97062.19;127939;1093;37561;-84
2021/08/10 06:24:04;;;;;;;2.65;1.73;;;;;;;38.65;38.07;97057.13;127949;1093;27693;-84
2021/08/10 06:26:36;;;;;;;2.38;1.85;;;;;;;39.25;36.91;97059.54;127962;1093;27711;-83
2021/08/10 06:29:08;;;;;;;2.15;1.93;;;;;;;39.89;37.43;97053.36;127922;1093;31451;-83
2021/08/10 06:31:39;;;;;;;2.30;1.90;;;;;;;40.00;36.94;97050.92;127907;1093;30439;-84
2021/08/10 06:34:13;;;;;;;2.08;1.60;;;;;;;41.08;36.48;97050.38;127928;1093;35715;-84
2021/08/10 06:36:45;;;;;;;1.70;1.48;;;;;;;41.85;34.15;97058.16;127943;1093;26734;-83
2021/08/10 06:39:17;;;;;;;2.85;1.70;;;;;;;40.90;33.41;97057.56;128012;1093;35761;-84
2021/08/10 06:41:49;;;;;;;3.00;1.90;;;;;;;40.30;32.43;97049.97;127946;1092;79898;-83
2021/08/10 06:44:22;;;;;;;1.50;1.40;;;;;;;40.91;32.93;97061.89;127942;1093;27320;-83
2021/08/10 06:46:53;;;;;;;3.60;1.90;;;;;;;41.39;30.95;97053.66;127896;1093;38652;-84
2021/08/10 06:49:26;;;;;;;3.48;1.58;;;;;;;41.15;31.91;97045.25;127937;1093;26924;-83
2021/08/10 06:51:58;;;;;;;3.68;1.60;;;;;;;40.87;31.95;97041.06;127925;1092;35331;-84
2021/08/10 06:54:38;;;;;;;1.63;1.53;;;;;;;41.75;30.96;97041.52;127894;1092;35747;-83
2021/08/10 06:57:12;;;;;;;3.03;1.75;;;;;;;42.04;31.56;97043.59;127939;1093;32908;-84
2021/08/10 06:59:44;;;;;;;3.68;2.10;;;;;;;42.78;30.78;97045.67;127913;1093;33509;-83
2021/08/10 07:02:16;;;;;;;2.40;1.73;;;;;;;43.33;29.34;97045.79;127968;1093;33766;-80
2021/08/10 07:04:47;;;;;;;2.55;1.43;;;;;;;41.85;27.71;97045.00;127923;1093;37614;-85
2021/08/10 07:07:19;;;;;;;2.00;1.60;;;;;;;41.50;30.07;97039.95;127974;1093;44507;-84
2021/08/10 07:09:51;;;;;;;2.10;1.78;;;;;;;43.02;29.31;97035.18;127979;1093;34165;-83
2021/08/10 07:12:22;;;;;;;2.23;1.58;;;;;;;43.75;29.17;97042.55;127906;1093;32127;-84
2021/08/10 07:14:54;;;;;;;3.35;1.73;;;;;;;43.52;26.64;97040.72;127913;1093;34465;-83
2021/08/10 07:17:25;;;;;;;1.50;1.40;;;;;;;42.04;26.41;97034.47;127904;1093;31221;-84
2021/08/10 07:19:57;;;;;;;1.35;1.25;;;;;;;41.31;26.87;97030.20;127899;1093;31542;-83
2021/08/10 07:22:29;;;;;;;1.95;1.58;;;;;;;40.49;27.40;97028.48;127896;1093;40715;-84
2021/08/10 07:25:00;;;;;;;2.08;1.70;;;;;;;41.70;28.18;97031.05;127872;1093;42523;-84
2021/08/10 07:27:32;;;;;;;2.45;1.50;;;;;;;41.50;27.12;97041.97;127945;1093;34986;-84
2021/08/10 07:30:04;;;;;;;1.93;1.60;;;;;;;41.09;27.21;97047.13;127955;1093;28383;-84
2021/08/10 07:32:36;;;;;;;3.38;1.53;;;;;;;42.14;28.59;97046.34;127886;1093;68163;-83
2021/08/10 07:35:11;;;;;;;2.13;1.50;;;;;;;43.60;27.78;97046.64;127911;1093;37636;-84
2021/08/10 07:37:45;;;;;;;1.70;1.35;;;;;;;44.94;26.82;97051.64;127961;1093;35242;-83
2021/08/10 07:40:17;;;;;;;1.95;1.50;;;;;;;44.37;24.42;97046.03;128012;1093;34161;-81
2021/08/10 07:42:49;;;;;;;2.48;1.83;;;;;;;42.16;24.65;97052.20;128005;1093;33008;-83
2021/08/10 07:45:20;;;;;;;2.05;1.75;;;;;;;41.22;26.51;97055.25;128010;1093;30888;-83
2021/08/10 07:47:54;;;;;;;2.60;1.58;;;;;;;42.28;26.13;97051.16;127966;1093;28537;-83
2021/08/10 07:50:26;;;;;;;1.95;1.50;;;;;;;42.95;27.69;97050.31;127929;1093;28952;-83
2021/08/10 07:52:57;;;;;;;1.55;1.45;;;;;;;44.11;25.79;97046.80;127927;1093;27978;-83
2021/08/10 07:55:29;;;;;;;3.15;1.70;;;;;;;42.88;23.75;97045.09;127872;1093;36054;-84
2021/08/10 07:58:00;;;;;;;2.20;1.97;;;;;;;42.12;26.21;97049.61;127937;1093;31419;-83
2021/08/10 08:00:32;;;;;;;2.88;1.45;;;;;;;42.64;25.93;97044.44;127923;1092;29591;-84
2021/08/10 08:03:04;;;;;;;1.70;1.60;;;;;;;42.25;25.63;97038.95;127972;1093;33979;-84
2021/08/10 08:05:36;;;;;;;3.05;2.00;;;;;;;40.71;26.12;97038.63;127900;1092;31038;-82
2021/08/10 08:08:08;;;;;;;2.73;1.60;;;;;;;39.67;27.67;97039.61;127950;1093;33500;-84
2021/08/10 08:10:39;;;;;;;2.43;1.70;;;;;;;39.38;28.07;97031.67;127928;1092;28930;-83
2021/08/10 08:13:11;;;;;;;3.35;1.73;;;;;;;37.92;29.04;97021.36;127960;1093;28627;-84
2021/08/10 08:15:43;;;;;;;3.23;1.55;;;;;;;37.42;29.87;97034.09;127952;1093;39063;-83
2021/08/10 08:18:14;;;;;;;2.10;1.83;;;;;;;36.76;29.72;97033.01;127936;1093;30467;-83
2021/08/10 08:20:47;;;;;;;2.75;2.00;;;;;;;37.14;30.07;97035.00;127978;1093;27339;-83
2021/08/10 08:23:19;;;;;;;2.13;1.93;;;;;;;38.19;31.11;97023.58;127967;1093;34387;-83
2021/08/10 08:25:51;;;;;;;3.00;1.95;;;;;;;39.59;30.27;97018.95;127963;1093;28067;-83
2021/08/10 08:28:23;;;;;;;2.73;2.03;;;;;;;39.89;28.83;97020.04;127940;1093;31489;-83
2021/08/10 08:30:54;;;;;;;4.70;1.88;;;;;;;39.53;29.65;97017.98;127880;1093;82028;-83
2021/08/10 08:33:26;;;;;;;2.45;1.78;;;;;;;39.65;28.69;97020.64;127944;1093;31118;-82
2021/08/10 08:35:58;;;;;;;2.53;1.80;;;;;;;39.38;29.50;97013.03;127944;1093;28872;-83
2021/08/10 08:38:30;;;;;;;3.43;1.90;;;;;;;39.09;29.14;97009.89;128006;1092;25705;-83
2021/08/10 08:41:02;;;;;;;3.85;2.35;;;;;;;37.62;29.76;97006.17;127946;1093;25579;-83
2021/08/10 08:43:34;;;;;;;2.80;1.87;;;;;;;36.72;29.83;97009.45;128002;1093;28359;-83
2021/08/10 08:46:05;;;;;;;2.35;2.00;;;;;;;35.38;32.21;96999.73;127915;1093;31878;-84
2021/08/10 08:48:38;;;;;;;2.48;1.75;;;;;;;35.38;32.72;97005.25;127954;1093;32076;-83
2021/08/10 08:51:12;;;;;;;3.20;1.63;;;;;;;34.05;32.67;96992.03;127915;1093;32075;-84
2021/08/10 08:53:53;;;;;;;5.05;2.20;;;;;;;32.69;34.00;96990.00;127945;1093;28891;-82
2021/08/10 08:56:26;;;;;;;2.23;1.90;;;;;;;31.51;36.23;96991.34;127947;1093;27103;-82
2021/08/10 08:58:58;;;;;;;2.23;2.03;;;;;;;30.65;38.32;96984.97;127879;1093;65818;-82
2021/08/10 09:01:30;;;;;;;3.25;2.23;;;;;;;29.84;39.15;96976.72;127959;1093;28944;-83
2021/08/10 09:04:06;;;;;;;3.13;1.93;;;;;;;29.76;39.91;96982.59;127965;1093;28593;-82
2021/08/10 09:06:39;;;;;;;2.45;2.10;;;;;;;29.38;40.90;96979.50;127958;1092;30777;-84
2021/08/10 09:09:24;;;;;;;3.15;2.18;;;;;;;29.59;41.53;96975.22;127948;1093;24851;-83
2021/08/10 09:11:58;;;;;;;2.78;1.88;;;;;;;29.41;41.83;96975.20;127964;1093;32409;-83
2021/08/10 09:14:46;;;;;;;2.18;1.80;;;;;;;29.73;42.85;96986.11;127970;1092;26303;-85
2021/08/10 09:17:20;;;;;;;2.75;1.80;;;;;;;30.08;42.34;96977.81;128038;1093;27206;-83
2021/08/10 09:19:54;;;;;;;2.30;1.90;;;;;;;30.47;42.29;96976.06;127951;1093;28576;-83
2021/08/10 09:22:31;;;;;;;2.45;2.05;;;;;;;30.44;41.79;96977.65;127975;1093;28999;-85
2021/08/10 09:25:06;;;;;;;2.68;2.00;;;;;;;30.43;42.09;96970.63;127886;1092;34087;-83
2021/08/10 09:27:40;;;;;;;3.13;2.35;;;;;;;29.86;42.08;96968.12;127959;1093;29260;-83
2021/08/10 09:30:14;;;;;;;3.10;2.13;;;;;;;29.93;42.51;96962.61;127895;1092;31122;-83
2021/08/10 09:33:00;;;;;;;2.30;1.90;;;;;;;29.19;42.38;96974.45;128045;1093;28686;-83
2021/08/10 09:35:37;;;;;;;3.70;2.23;;;;;;;28.38;43.94;96965.77;127945;1092;29044;-83
2021/08/10 09:38:13;;;;;;;2.73;2.00;;;;;;;28.01;45.36;96965.21;128000;1092;26429;-83
2021/08/10 09:40:47;;;;;;;2.93;2.20;;;;;;;27.55;45.68;96968.47;127996;1093;29719;-83
2021/08/10 09:43:39;;;;;;;3.50;2.53;;;;;;;27.30;47.55;96962.08;128048;1093;27463;-83
2021/08/10 09:46:16;;;;;;;2.73;2.15;;;;;;;27.63;48.22;96947.52;127964;1093;28617;-84
2021/08/10 09:48:57;;;;;;;4.83;2.30;;;;;;;27.81;47.14;96951.13;128006;1093;29478;-83
2021/08/10 09:51:32;;;;;;;3.00;2.50;;;;;;;27.47;47.70;96961.43;127901;1093;29164;-83
2021/08/10 09:54:07;;;;;;;5.60;2.35;;;;;;;27.30;47.80;96956.63;127954;1093;31118;-83
2021/08/10 09:56:43;;;;;;;3.05;2.35;;;;;;;27.20;48.03;96955.42;127972;1093;29676;-83
2021/08/10 09:59:16;;;;;;;2.85;2.05;;;;;;;27.01;48.88;96945.53;127937;1092;32835;-82
2021/08/10 10:01:50;;;;;;;2.57;2.13;;;;;;;27.33;49.67;96948.51;128022;1092;26924;-83
2021/08/10 10:04:28;;;;;;;3.40;2.30;;;;;;;27.56;49.08;96948.23;127956;1093;71616;-83
2021/08/10 10:07:10;;;;;;;2.30;2.00;;;;;;;27.57;48.58;96944.35;127955;1093;29405;-83
2021/08/10 10:09:42;;;;;;;4.48;2.48;;;;;;;27.32;48.64;96944.23;128049;1091;25586;-83
2021/08/10 10:12:16;;;;;;;4.60;2.45;;;;;;;27.39;49.77;96938.81;127984;1093;28301;-83
2021/08/10 10:14:48;;;;;;;4.68;2.30;;;;;;;27.50;49.42;96939.66;128027;1093;26503;-82
2021/08/10 10:17:21;;;;;;;2.35;1.95;;;;;;;27.47;49.96;96947.81;128047;1093;25451;-84
2021/08/10 10:19:54;;;;;;;2.78;2.18;;;;;;;27.51;49.70;96946.66;127926;1093;27429;-82
2021/08/10 10:22:32;;;;;;;4.30;2.35;;;;;;;27.69;50.14;96951.45;127908;1092;37309;-83
2021/08/10 10:25:05;;;;;;;4.13;2.70;;;;;;;27.42;49.87;96940.77;127930;1092;27327;-83
2021/08/10 10:27:38;;;;;;;3.50;2.40;;;;;;;27.39;50.27;96938.03;127959;1092;27017;-83
2021/08/10 10:30:12;;;;;;;3.40;2.38;;;;;;;27.26;50.17;96939.50;127952;1093;49389;-83
2021/08/10 10:32:44;;;;;;;4.25;2.45;;;;;;;27.14;50.91;96938.64;127972;1093;25900;-83
2021/08/10 10:35:18;;;;;;;3.08;2.45;;;;;;;27.30;51.56;96941.08;127963;1093;25634;-83
2021/08/10 10:37:51;;;;;;;3.85;2.50;;;;;;;27.45;51.61;96936.53;128066;1093;24842;-83
2021/08/10 10:40:24;;;;;;;3.40;2.58;;;;;;;27.49;51.86;96932.66;127922;1092;33323;-83
2021/08/10 10:42:58;;;;;;;3.63;2.20;;;;;;;27.63;51.41;96936.61;127915;1092;53179;-83
2021/08/10 10:45:39;;;;;;;3.68;2.30;;;;;;;27.36;51.35;96927.91;127976;1093;26425;-83
2021/08/10 10:48:46;;;;;;;2.95;2.53;;;;;;;27.40;51.57;96934.14;127961;1093;30070;-83
2021/08/10 10:51:33;;;;;;;2.68;2.08;;;;;;;27.16;51.25;96930.09;128044;1093;29274;-84
2021/08/10 10:54:29;;;;;;;2.90;2.58;;;;;;;26.71;51.02;96926.61;127956;1093;30651;-83
2021/08/10 10:57:01;;;;;;;3.10;2.78;;;;;;;26.66;53.05;96924.25;127954;1093;30798;-83
2021/08/10 10:59:38;;;;;;;5.68;2.45;;;;;;;26.98;53.70;96924.50;127915;1093;42748;-83
2021/08/10 11:02:23;;;;;;;2.73;2.30;;;;;;;26.99;52.42;96919.84;127930;1093;27751;-83
2021/08/10 11:05:26;;;;;;;4.80;2.70;;;;;;;27.01;52.57;96920.27;127945;1092;40951;-83
2021/08/10 11:08:00;;;;;;;2.53;2.20;;;;;;;26.99;52.80;96926.06;127991;1091;26432;-83
2021/08/10 11:10:41;;;;;;;2.63;2.13;;;;;;;26.72;52.49;96921.95;127969;1092;26195;-83
2021/08/10 11:13:42;;;;;;;4.48;2.60;;;;;;;26.52;52.75;96922.17;127988;1093;26972;-83
2021/08/10 11:16:15;;;;;;;3.83;2.80;;;;;;;26.25;53.54;96916.06;127925;1093;31258;-83
2021/08/10 11:18:48;;;;;;;7.10;2.70;;;;;;;26.46;53.96;96912.78;128069;1093;26213;-83
2021/08/10 11:21:26;;;;;;;3.53;2.15;;;;;;;26.62;54.04;96916.06;128005;1092;24869;-83
2021/08/10 11:23:58;;;;;;;4.48;2.30;;;;;;;26.49;53.43;96919.44;127984;1093;28099;-83
2021/08/10 11:26:42;;;;;;;3.73;2.93;;;;;;;26.21;53.55;96914.47;127938;1093;28265;-83
2021/08/10 11:29:35;;;;;;;3.10;2.30;;;;;;;26.33;54.73;96901.39;127931;1093;26980;-84
2021/08/10 11:32:37;;;;;;;2.85;2.50;;;;;;;26.57;54.74;96907.45;127929;1092;25333;-84
2021/08/10 11:35:29;;;;;;;3.13;2.58;;;;;;;26.60;54.61;96906.69;127966;1092;26576;-83
2021/08/10 11:38:16;;;;;;;3.15;2.53;;;;;;;26.46;53.83;96904.63;128015;1093;26532;-83
2021/08/10 11:40:57;;;;;;;3.78;2.40;;;;;;;26.56;55.19;96903.17;128043;1092;29355;-83
2021/08/10 11:43:36;;;;;;;;;;;;;;;26.62;55.13;96898.97;128014;1092;25866;-84
2021/08/10 11:46:08;;;;;;;3.13;2.00;;;;;;;26.83;55.54;96898.34;127979;1092;26376;-84
2021/08/10 11:48:48;;;;;;;3.95;2.53;;;;;;;26.97;53.73;96887.56;127953;1093;28788;-83
2021/08/10 11:51:26;;;;;;;3.20;2.60;;;;;;;26.96;54.37;96891.45;127962;1093;26829;-83
2021/08/10 11:54:00;;;;;;;2.63;2.25;;;;;;;26.88;53.49;96879.72;127951;1093;29389;-83
2021/08/10 11:56:34;;;;;;;3.65;2.58;;;;;;;26.64;53.64;96888.48;127947;1093;33437;-83
2021/08/10 11:59:09;;;;;;;3.45;2.45;;;;;;;26.70;54.06;96886.19;127972;1093;29705;-83